<?xml version="1.0" encoding="UTF-8" standalone="no" ?><gpx xmlns="http://www.topografix.com/GPX/1/1" xmlns:gpxx="http://www.garmin.com/xmlschemas/GpxExtensions/v3" xmlns:wptx1="http://www.garmin.com/xmlschemas/WaypointExtension/v1" xmlns:gpxtpx="http://www.garmin.com/xmlschemas/TrackPointExtension/v1" creator="GuideVTT.com" version="1.1" xmlns:xsi="http://www.w3.org/2001/XMLSchema-instance" xsi:schemaLocation="http://www.topografix.com/GPX/1/1 http://www.topografix.com/GPX/1/1/gpx.xsd http://www.garmin.com/xmlschemas/GpxExtensions/v3 http://www8.garmin.com/xmlschemas/GpxExtensionsv3.xsd http://www.garmin.com/xmlschemas/WaypointExtension/v1 http://www8.garmin.com/xmlschemas/WaypointExtensionv1.xsd http://www.garmin.com/xmlschemas/TrackPointExtension/v1 http://www.garmin.com/xmlschemas/TrackPointExtensionv1.xsd">
<metadata><link href="http://www.garmin.com"><text>Garmin International</text></link><time>2013-06-22T15:13:50Z</time></metadata>
<trk><name>rp_sortie14.gpx</name><extensions><gpxx:TrackExtension><gpxx:DisplayColor>Cyan</gpxx:DisplayColor></gpxx:TrackExtension></extensions><trkseg>
<trkpt lat="47.33262062" lon="7.19814777"><ele></ele><time>2014-4-30T22:11:20Z</time></trkpt>
<trkpt lat="47.33262062" lon="7.19778299"><ele></ele><time>2014-4-30T22:11:23Z</time></trkpt>
<trkpt lat="47.33193398" lon="7.19628096"><ele></ele><time>2014-4-30T22:11:26Z</time></trkpt>
<trkpt lat="47.33139753" lon="7.19565868"><ele></ele><time>2014-4-30T22:11:29Z</time></trkpt>
<trkpt lat="47.33041048" lon="7.19462872"><ele></ele><time>2014-4-30T22:11:32Z</time></trkpt>
<trkpt lat="47.33019590" lon="7.19415665"><ele></ele><time>2014-4-30T22:11:35Z</time></trkpt>
<trkpt lat="47.32995987" lon="7.19321251"><ele></ele><time>2014-4-30T22:11:38Z</time></trkpt>
<trkpt lat="47.32935905" lon="7.19203234"><ele></ele><time>2014-4-30T22:11:41Z</time></trkpt>
<trkpt lat="47.32914448" lon="7.19123840"><ele></ele><time>2014-4-30T22:11:44Z</time></trkpt>
<trkpt lat="47.32867241" lon="7.19029427"><ele></ele><time>2014-4-30T22:11:47Z</time></trkpt>
<trkpt lat="47.32820034" lon="7.18962908"><ele></ele><time>2014-4-30T22:11:50Z</time></trkpt>
<trkpt lat="47.32794285" lon="7.18939304"><ele></ele><time>2014-4-30T22:11:53Z</time></trkpt>
<trkpt lat="47.32794285" lon="7.18935013"><ele></ele><time>2014-4-30T22:11:56Z</time></trkpt>
<trkpt lat="47.32798576" lon="7.18937159"><ele></ele><time>2014-4-30T22:11:59Z</time></trkpt>
<trkpt lat="47.32800722" lon="7.18932867"><ele></ele><time>2014-4-30T22:12:2Z</time></trkpt>
<trkpt lat="47.32789993" lon="7.18924284"><ele></ele><time>2014-4-30T22:12:5Z</time></trkpt>
<trkpt lat="47.32757807" lon="7.18862057"><ele></ele><time>2014-4-30T22:12:8Z</time></trkpt>
<trkpt lat="47.32706308" lon="7.18774080"><ele></ele><time>2014-4-30T22:12:11Z</time></trkpt>
<trkpt lat="47.32659101" lon="7.18679667"><ele></ele><time>2014-4-30T22:12:14Z</time></trkpt>
<trkpt lat="47.32586145" lon="7.18557358"><ele></ele><time>2014-4-30T22:12:17Z</time></trkpt>
<trkpt lat="47.32571125" lon="7.18484402"><ele></ele><time>2014-4-30T22:12:20Z</time></trkpt>
<trkpt lat="47.32556105" lon="7.18364239"><ele></ele><time>2014-4-30T22:12:23Z</time></trkpt>
<trkpt lat="47.32418776" lon="7.18046665"><ele></ele><time>2014-4-30T22:12:26Z</time></trkpt>
<trkpt lat="47.32343674" lon="7.17896461"><ele></ele><time>2014-4-30T22:12:29Z</time></trkpt>
<trkpt lat="47.32326508" lon="7.17804193"><ele></ele><time>2014-4-30T22:12:32Z</time></trkpt>
<trkpt lat="47.32298613" lon="7.17716217"><ele></ele><time>2014-4-30T22:12:35Z</time></trkpt>
<trkpt lat="47.32242823" lon="7.17613220"><ele></ele><time>2014-4-30T22:12:38Z</time></trkpt>
<trkpt lat="47.32197762" lon="7.17523098"><ele></ele><time>2014-4-30T22:12:41Z</time></trkpt>
<trkpt lat="47.32152700" lon="7.17422247"><ele></ele><time>2014-4-30T22:12:44Z</time></trkpt>
<trkpt lat="47.32105494" lon="7.17349291"><ele></ele><time>2014-4-30T22:12:47Z</time></trkpt>
<trkpt lat="47.32077599" lon="7.17289209"><ele></ele><time>2014-4-30T22:12:50Z</time></trkpt>
<trkpt lat="47.32030392" lon="7.17203379"><ele></ele><time>2014-4-30T22:12:53Z</time></trkpt>
<trkpt lat="47.32008934" lon="7.17151880"><ele></ele><time>2014-4-30T22:12:56Z</time></trkpt>
<trkpt lat="47.31998205" lon="7.17111111"><ele></ele><time>2014-4-30T22:12:59Z</time></trkpt>
<trkpt lat="47.31978893" lon="7.17078924"><ele></ele><time>2014-4-30T22:13:2Z</time></trkpt>
<trkpt lat="47.31955290" lon="7.17016697"><ele></ele><time>2014-4-30T22:13:5Z</time></trkpt>
<trkpt lat="47.31927395" lon="7.16982365"><ele></ele><time>2014-4-30T22:13:8Z</time></trkpt>
<trkpt lat="47.31895208" lon="7.16963053"><ele></ele><time>2014-4-30T22:13:11Z</time></trkpt>
<trkpt lat="47.31843710" lon="7.16915846"><ele></ele><time>2014-4-30T22:13:14Z</time></trkpt>
<trkpt lat="47.31832981" lon="7.16896534"><ele></ele><time>2014-4-30T22:13:17Z</time></trkpt>
<trkpt lat="47.31837273" lon="7.16857910"><ele></ele><time>2014-4-30T22:13:20Z</time></trkpt>
<trkpt lat="47.31830835" lon="7.16814995"><ele></ele><time>2014-4-30T22:13:23Z</time></trkpt>
<trkpt lat="47.31813669" lon="7.16789246"><ele></ele><time>2014-4-30T22:13:26Z</time></trkpt>
<trkpt lat="47.31787920" lon="7.16763496"><ele></ele><time>2014-4-30T22:13:29Z</time></trkpt>
<trkpt lat="47.31762171" lon="7.16733456"><ele></ele><time>2014-4-30T22:13:32Z</time></trkpt>
<trkpt lat="47.31723547" lon="7.16662645"><ele></ele><time>2014-4-30T22:13:35Z</time></trkpt>
<trkpt lat="47.31706381" lon="7.16624022"><ele></ele><time>2014-4-30T22:13:38Z</time></trkpt>
<trkpt lat="47.31684923" lon="7.16561794"><ele></ele><time>2014-4-30T22:13:41Z</time></trkpt>
<trkpt lat="47.31637716" lon="7.16405153"><ele></ele><time>2014-4-30T22:13:44Z</time></trkpt>
<trkpt lat="47.31592655" lon="7.16276407"><ele></ele><time>2014-4-30T22:13:47Z</time></trkpt>
<trkpt lat="47.31521845" lon="7.16124058"><ele></ele><time>2014-4-30T22:13:50Z</time></trkpt>
<trkpt lat="47.31472492" lon="7.16038227"><ele></ele><time>2014-4-30T22:13:53Z</time></trkpt>
<trkpt lat="47.31395245" lon="7.15918064"><ele></ele><time>2014-4-30T22:13:56Z</time></trkpt>
<trkpt lat="47.31300831" lon="7.15787172"><ele></ele><time>2014-4-30T22:13:59Z</time></trkpt>
<trkpt lat="47.31266499" lon="7.15733528"><ele></ele><time>2014-4-30T22:14:2Z</time></trkpt>
<trkpt lat="47.31219292" lon="7.15701342"><ele></ele><time>2014-4-30T22:14:5Z</time></trkpt>
<trkpt lat="47.31174231" lon="7.15654135"><ele></ele><time>2014-4-30T22:14:8Z</time></trkpt>
<trkpt lat="47.31165648" lon="7.15615511"><ele></ele><time>2014-4-30T22:14:11Z</time></trkpt>
<trkpt lat="47.31169939" lon="7.15564013"><ele></ele><time>2014-4-30T22:14:14Z</time></trkpt>
<trkpt lat="47.31135607" lon="7.15471745"><ele></ele><time>2014-4-30T22:14:17Z</time></trkpt>
<trkpt lat="47.31090546" lon="7.15405226"><ele></ele><time>2014-4-30T22:14:20Z</time></trkpt>
<trkpt lat="47.31028318" lon="7.15289354"><ele></ele><time>2014-4-30T22:14:23Z</time></trkpt>
<trkpt lat="47.30918884" lon="7.15124130"><ele></ele><time>2014-4-30T22:14:26Z</time></trkpt>
<trkpt lat="47.30867386" lon="7.15021133"><ele></ele><time>2014-4-30T22:14:29Z</time></trkpt>
<trkpt lat="47.30860949" lon="7.14958906"><ele></ele><time>2014-4-30T22:14:32Z</time></trkpt>
<trkpt lat="47.30858803" lon="7.14866638"><ele></ele><time>2014-4-30T22:14:35Z</time></trkpt>
<trkpt lat="47.30822325" lon="7.14791536"><ele></ele><time>2014-4-30T22:14:38Z</time></trkpt>
<trkpt lat="47.30740786" lon="7.14791536"><ele></ele><time>2014-4-30T22:14:41Z</time></trkpt>
<trkpt lat="47.30719328" lon="7.14767933"><ele></ele><time>2014-4-30T22:14:44Z</time></trkpt>
<trkpt lat="47.30687141" lon="7.14714289"><ele></ele><time>2014-4-30T22:14:47Z</time></trkpt>
<trkpt lat="47.30633497" lon="7.14600563"><ele></ele><time>2014-4-30T22:14:50Z</time></trkpt>
<trkpt lat="47.30494022" lon="7.14362383"><ele></ele><time>2014-4-30T22:14:53Z</time></trkpt>
<trkpt lat="47.30463982" lon="7.14328051"><ele></ele><time>2014-4-30T22:14:56Z</time></trkpt>
<trkpt lat="47.30440378" lon="7.14295864"><ele></ele><time>2014-4-30T22:14:59Z</time></trkpt>
<trkpt lat="47.30354548" lon="7.14147806"><ele></ele><time>2014-4-30T22:15:2Z</time></trkpt>
<trkpt lat="47.30277300" lon="7.14064121"><ele></ele><time>2014-4-30T22:15:5Z</time></trkpt>
<trkpt lat="47.30270863" lon="7.14040518"><ele></ele><time>2014-4-30T22:15:8Z</time></trkpt>
<trkpt lat="47.30221510" lon="7.13946104"><ele></ele><time>2014-4-30T22:15:11Z</time></trkpt>
<trkpt lat="47.30202198" lon="7.13883877"><ele></ele><time>2014-4-30T22:15:14Z</time></trkpt>
<trkpt lat="47.30200052" lon="7.13815212"><ele></ele><time>2014-4-30T22:15:17Z</time></trkpt>
<trkpt lat="47.30187178" lon="7.13735819"><ele></ele><time>2014-4-30T22:15:20Z</time></trkpt>
<trkpt lat="47.30191469" lon="7.13684320"><ele></ele><time>2014-4-30T22:15:23Z</time></trkpt>
<trkpt lat="47.30197906" lon="7.13647842"><ele></ele><time>2014-4-30T22:15:26Z</time></trkpt>
<trkpt lat="47.30185032" lon="7.13585615"><ele></ele><time>2014-4-30T22:15:29Z</time></trkpt>
<trkpt lat="47.30137825" lon="7.13465452"><ele></ele><time>2014-4-30T22:15:32Z</time></trkpt>
<trkpt lat="47.30112076" lon="7.13420391"><ele></ele><time>2014-4-30T22:15:35Z</time></trkpt>
<trkpt lat="47.30047703" lon="7.13246584"><ele></ele><time>2014-4-30T22:15:38Z</time></trkpt>
<trkpt lat="47.30043411" lon="7.13162899"><ele></ele><time>2014-4-30T22:15:41Z</time></trkpt>
<trkpt lat="47.30026245" lon="7.13092089"><ele></ele><time>2014-4-30T22:15:44Z</time></trkpt>
<trkpt lat="47.30006933" lon="7.13038445"><ele></ele><time>2014-4-30T22:15:47Z</time></trkpt>
<trkpt lat="47.29929686" lon="7.12976217"><ele></ele><time>2014-4-30T22:15:50Z</time></trkpt>
<trkpt lat="47.29891062" lon="7.12937593"><ele></ele><time>2014-4-30T22:15:53Z</time></trkpt>
<trkpt lat="47.29873896" lon="7.12903261"><ele></ele><time>2014-4-30T22:15:56Z</time></trkpt>
<trkpt lat="47.29856730" lon="7.12883949"><ele></ele><time>2014-4-30T22:15:59Z</time></trkpt>
<trkpt lat="47.29846001" lon="7.12879658"><ele></ele><time>2014-4-30T22:16:2Z</time></trkpt>
<trkpt lat="47.29884624" lon="7.12864637"><ele></ele><time>2014-4-30T22:16:5Z</time></trkpt>
<trkpt lat="47.29863167" lon="7.12860346"><ele></ele><time>2014-4-30T22:16:8Z</time></trkpt>
<trkpt lat="47.29863167" lon="7.12856054"><ele></ele><time>2014-4-30T22:16:11Z</time></trkpt>
<trkpt lat="47.29878187" lon="7.12817430"><ele></ele><time>2014-4-30T22:16:14Z</time></trkpt>
<trkpt lat="47.29891062" lon="7.12795973"><ele></ele><time>2014-4-30T22:16:17Z</time></trkpt>
<trkpt lat="47.29891062" lon="7.12780952"><ele></ele><time>2014-4-30T22:16:20Z</time></trkpt>
<trkpt lat="47.29884624" lon="7.12770224"><ele></ele><time>2014-4-30T22:16:23Z</time></trkpt>
<trkpt lat="47.29839563" lon="7.12744474"><ele></ele><time>2014-4-30T22:16:26Z</time></trkpt>
<trkpt lat="47.29807377" lon="7.12748766"><ele></ele><time>2014-4-30T22:16:29Z</time></trkpt>
<trkpt lat="47.29779482" lon="7.12740183"><ele></ele><time>2014-4-30T22:16:32Z</time></trkpt>
<trkpt lat="47.29749441" lon="7.12723017"><ele></ele><time>2014-4-30T22:16:35Z</time></trkpt>
<trkpt lat="47.29717255" lon="7.12699413"><ele></ele><time>2014-4-30T22:16:38Z</time></trkpt>
<trkpt lat="47.29689360" lon="7.12662935"><ele></ele><time>2014-4-30T22:16:41Z</time></trkpt>
<trkpt lat="47.29642153" lon="7.12624311"><ele></ele><time>2014-4-30T22:16:44Z</time></trkpt>
<trkpt lat="47.29633570" lon="7.12624311"><ele></ele><time>2014-4-30T22:16:47Z</time></trkpt>
<trkpt lat="47.29633570" lon="7.12632895"><ele></ele><time>2014-4-30T22:16:50Z</time></trkpt>
<trkpt lat="47.29655027" lon="7.12662935"><ele></ele><time>2014-4-30T22:16:53Z</time></trkpt>
<trkpt lat="47.29663610" lon="7.12680101"><ele></ele><time>2014-4-30T22:16:56Z</time></trkpt>
<trkpt lat="47.29652882" lon="7.12686539"><ele></ele><time>2014-4-30T22:16:59Z</time></trkpt>
<trkpt lat="47.29633570" lon="7.12671518"><ele></ele><time>2014-4-30T22:17:2Z</time></trkpt>
<trkpt lat="47.29633570" lon="7.12665081"><ele></ele><time>2014-4-30T22:17:5Z</time></trkpt>
<trkpt lat="47.29627132" lon="7.12660789"><ele></ele><time>2014-4-30T22:17:8Z</time></trkpt>
<trkpt lat="47.29573488" lon="7.12645769"><ele></ele><time>2014-4-30T22:17:11Z</time></trkpt>
<trkpt lat="47.29543447" lon="7.12628603"><ele></ele><time>2014-4-30T22:17:14Z</time></trkpt>
<trkpt lat="47.29547739" lon="7.12626457"><ele></ele><time>2014-4-30T22:17:17Z</time></trkpt>
<trkpt lat="47.29558468" lon="7.12613583"><ele></ele><time>2014-4-30T22:17:20Z</time></trkpt>
<trkpt lat="47.29549885" lon="7.12622166"><ele></ele><time>2014-4-30T22:17:23Z</time></trkpt>
<trkpt lat="47.29543447" lon="7.12611437"><ele></ele><time>2014-4-30T22:17:26Z</time></trkpt>
<trkpt lat="47.29491949" lon="7.12549210"><ele></ele><time>2014-4-30T22:17:29Z</time></trkpt>
<trkpt lat="47.29444742" lon="7.12461233"><ele></ele><time>2014-4-30T22:17:32Z</time></trkpt>
<trkpt lat="47.29438305" lon="7.12463379"><ele></ele><time>2014-4-30T22:17:35Z</time></trkpt>
<trkpt lat="47.29459763" lon="7.12555647"><ele></ele><time>2014-4-30T22:17:38Z</time></trkpt>
<trkpt lat="47.29470491" lon="7.12665081"><ele></ele><time>2014-4-30T22:17:41Z</time></trkpt>
<trkpt lat="47.29487658" lon="7.12772369"><ele></ele><time>2014-4-30T22:17:44Z</time></trkpt>
<trkpt lat="47.29521990" lon="7.12834597"><ele></ele><time>2014-4-30T22:17:47Z</time></trkpt>
<trkpt lat="47.29530573" lon="7.12856054"><ele></ele><time>2014-4-30T22:17:50Z</time></trkpt>
<trkpt lat="47.29539156" lon="7.12860346"><ele></ele><time>2014-4-30T22:17:53Z</time></trkpt>
<trkpt lat="47.29539156" lon="7.12868929"><ele></ele><time>2014-4-30T22:17:56Z</time></trkpt>
<trkpt lat="47.29549885" lon="7.12903261"><ele></ele><time>2014-4-30T22:17:59Z</time></trkpt>
<trkpt lat="47.29614258" lon="7.13040590"><ele></ele><time>2014-4-30T22:18:2Z</time></trkpt>
<trkpt lat="47.29633570" lon="7.13068485"><ele></ele><time>2014-4-30T22:18:5Z</time></trkpt>
<trkpt lat="47.29685068" lon="7.13089943"><ele></ele><time>2014-4-30T22:18:8Z</time></trkpt>
<trkpt lat="47.29693651" lon="7.13117838"><ele></ele><time>2014-4-30T22:18:11Z</time></trkpt>
<trkpt lat="47.29704380" lon="7.13201523"><ele></ele><time>2014-4-30T22:18:14Z</time></trkpt>
<trkpt lat="47.29725838" lon="7.13280916"><ele></ele><time>2014-4-30T22:18:17Z</time></trkpt>
<trkpt lat="47.29758024" lon="7.13420391"><ele></ele><time>2014-4-30T22:18:20Z</time></trkpt>
<trkpt lat="47.29796648" lon="7.13542700"><ele></ele><time>2014-4-30T22:18:23Z</time></trkpt>
<trkpt lat="47.29833126" lon="7.13617802"><ele></ele><time>2014-4-30T22:18:26Z</time></trkpt>
<trkpt lat="47.29852438" lon="7.13665009"><ele></ele><time>2014-4-30T22:18:29Z</time></trkpt>
<trkpt lat="47.29878187" lon="7.13740110"><ele></ele><time>2014-4-30T22:18:32Z</time></trkpt>
<trkpt lat="47.29884624" lon="7.13785172"><ele></ele><time>2014-4-30T22:18:35Z</time></trkpt>
<trkpt lat="47.29880333" lon="7.13843107"><ele></ele><time>2014-4-30T22:18:38Z</time></trkpt>
<trkpt lat="47.29886770" lon="7.13920355"><ele></ele><time>2014-4-30T22:18:41Z</time></trkpt>
<trkpt lat="47.29895353" lon="7.13965416"><ele></ele><time>2014-4-30T22:18:44Z</time></trkpt>
<trkpt lat="47.29865313" lon="7.14107037"><ele></ele><time>2014-4-30T22:18:47Z</time></trkpt>
<trkpt lat="47.29876041" lon="7.14323759"><ele></ele><time>2014-4-30T22:18:50Z</time></trkpt>
<trkpt lat="47.29895353" lon="7.14467525"><ele></ele><time>2014-4-30T22:18:53Z</time></trkpt>
<trkpt lat="47.29914665" lon="7.14566231"><ele></ele><time>2014-4-30T22:18:56Z</time></trkpt>
<trkpt lat="47.29929686" lon="7.14626312"><ele></ele><time>2014-4-30T22:18:59Z</time></trkpt>
<trkpt lat="47.29936123" lon="7.14679956"><ele></ele><time>2014-4-30T22:19:2Z</time></trkpt>
<trkpt lat="47.29953289" lon="7.14722872"><ele></ele><time>2014-4-30T22:19:5Z</time></trkpt>
<trkpt lat="47.29959726" lon="7.14774370"><ele></ele><time>2014-4-30T22:19:8Z</time></trkpt>
<trkpt lat="47.29983330" lon="7.14864492"><ele></ele><time>2014-4-30T22:19:11Z</time></trkpt>
<trkpt lat="47.30021954" lon="7.15057611"><ele></ele><time>2014-4-30T22:19:14Z</time></trkpt>
<trkpt lat="47.30028391" lon="7.15072632"><ele></ele><time>2014-4-30T22:19:17Z</time></trkpt>
<trkpt lat="47.30043411" lon="7.15141296"><ele></ele><time>2014-4-30T22:19:20Z</time></trkpt>
<trkpt lat="47.30071306" lon="7.15220690"><ele></ele><time>2014-4-30T22:19:23Z</time></trkpt>
<trkpt lat="47.30103493" lon="7.15274334"><ele></ele><time>2014-4-30T22:19:26Z</time></trkpt>
<trkpt lat="47.30124950" lon="7.15317249"><ele></ele><time>2014-4-30T22:19:29Z</time></trkpt>
<trkpt lat="47.30139971" lon="7.15358019"><ele></ele><time>2014-4-30T22:19:32Z</time></trkpt>
<trkpt lat="47.30152845" lon="7.15381622"><ele></ele><time>2014-4-30T22:19:35Z</time></trkpt>
<trkpt lat="47.30167866" lon="7.15388060"><ele></ele><time>2014-4-30T22:19:38Z</time></trkpt>
<trkpt lat="47.30202198" lon="7.15456724"><ele></ele><time>2014-4-30T22:19:41Z</time></trkpt>
<trkpt lat="47.30219364" lon="7.15544701"><ele></ele><time>2014-4-30T22:19:44Z</time></trkpt>
<trkpt lat="47.30257988" lon="7.15669155"><ele></ele><time>2014-4-30T22:19:47Z</time></trkpt>
<trkpt lat="47.30322361" lon="7.15909481"><ele></ele><time>2014-4-30T22:19:50Z</time></trkpt>
<trkpt lat="47.30363131" lon="7.16046810"><ele></ele><time>2014-4-30T22:19:53Z</time></trkpt>
<trkpt lat="47.30418921" lon="7.16295719"><ele></ele><time>2014-4-30T22:19:56Z</time></trkpt>
<trkpt lat="47.30444670" lon="7.16383696"><ele></ele><time>2014-4-30T22:19:59Z</time></trkpt>
<trkpt lat="47.30532646" lon="7.16533899"><ele></ele><time>2014-4-30T22:20:2Z</time></trkpt>
<trkpt lat="47.30654955" lon="7.16763496"><ele></ele><time>2014-4-30T22:20:5Z</time></trkpt>
<trkpt lat="47.30856657" lon="7.17224836"><ele></ele><time>2014-4-30T22:20:8Z</time></trkpt>
<trkpt lat="47.30863094" lon="7.17272043"><ele></ele><time>2014-4-30T22:20:11Z</time></trkpt>
<trkpt lat="47.30882406" lon="7.17297792"><ele></ele><time>2014-4-30T22:20:14Z</time></trkpt>
<trkpt lat="47.30906010" lon="7.17308521"><ele></ele><time>2014-4-30T22:20:17Z</time></trkpt>
<trkpt lat="47.30927467" lon="7.17344999"><ele></ele><time>2014-4-30T22:20:20Z</time></trkpt>
<trkpt lat="47.30933905" lon="7.17430830"><ele></ele><time>2014-4-30T22:20:23Z</time></trkpt>
<trkpt lat="47.30970383" lon="7.17615366"><ele></ele><time>2014-4-30T22:20:26Z</time></trkpt>
<trkpt lat="47.30989695" lon="7.17696905"><ele></ele><time>2014-4-30T22:20:29Z</time></trkpt>
<trkpt lat="47.31015444" lon="7.17838526"><ele></ele><time>2014-4-30T22:20:32Z</time></trkpt>
<trkpt lat="47.31030464" lon="7.17939377"><ele></ele><time>2014-4-30T22:20:35Z</time></trkpt>
<trkpt lat="47.31041193" lon="7.18035936"><ele></ele><time>2014-4-30T22:20:38Z</time></trkpt>
<trkpt lat="47.31043339" lon="7.18080997"><ele></ele><time>2014-4-30T22:20:41Z</time></trkpt>
<trkpt lat="47.31051922" lon="7.18138933"><ele></ele><time>2014-4-30T22:20:44Z</time></trkpt>
<trkpt lat="47.31079817" lon="7.18248367"><ele></ele><time>2014-4-30T22:20:47Z</time></trkpt>
<trkpt lat="47.31086254" lon="7.18284845"><ele></ele><time>2014-4-30T22:20:50Z</time></trkpt>
<trkpt lat="47.31086254" lon="7.18321323"><ele></ele><time>2014-4-30T22:20:53Z</time></trkpt>
<trkpt lat="47.31077671" lon="7.18353510"><ele></ele><time>2014-4-30T22:20:56Z</time></trkpt>
<trkpt lat="47.31071234" lon="7.18396425"><ele></ele><time>2014-4-30T22:20:59Z</time></trkpt>
<trkpt lat="47.31084108" lon="7.18445778"><ele></ele><time>2014-4-30T22:21:2Z</time></trkpt>
<trkpt lat="47.31084108" lon="7.18454361"><ele></ele><time>2014-4-30T22:21:5Z</time></trkpt>
<trkpt lat="47.31088400" lon="7.18458652"><ele></ele><time>2014-4-30T22:21:8Z</time></trkpt>
<trkpt lat="47.31088400" lon="7.18469381"><ele></ele><time>2014-4-30T22:21:11Z</time></trkpt>
<trkpt lat="47.31090546" lon="7.18469381"><ele></ele><time>2014-4-30T22:21:14Z</time></trkpt>
<trkpt lat="47.31127024" lon="7.18565941"><ele></ele><time>2014-4-30T22:21:17Z</time></trkpt>
<trkpt lat="47.31129169" lon="7.18606710"><ele></ele><time>2014-4-30T22:21:20Z</time></trkpt>
<trkpt lat="47.31112003" lon="7.18810558"><ele></ele><time>2014-4-30T22:21:23Z</time></trkpt>
<trkpt lat="47.31099129" lon="7.18926430"><ele></ele><time>2014-4-30T22:21:26Z</time></trkpt>
<trkpt lat="47.31103420" lon="7.18986511"><ele></ele><time>2014-4-30T22:21:29Z</time></trkpt>
<trkpt lat="47.31109858" lon="7.19027281"><ele></ele><time>2014-4-30T22:21:32Z</time></trkpt>
<trkpt lat="47.31116295" lon="7.19059467"><ele></ele><time>2014-4-30T22:21:35Z</time></trkpt>
<trkpt lat="47.31142044" lon="7.19134569"><ele></ele><time>2014-4-30T22:21:38Z</time></trkpt>
<trkpt lat="47.31163502" lon="7.19183922"><ele></ele><time>2014-4-30T22:21:41Z</time></trkpt>
<trkpt lat="47.31184959" lon="7.19222546"><ele></ele><time>2014-4-30T22:21:44Z</time></trkpt>
<trkpt lat="47.31193542" lon="7.19233274"><ele></ele><time>2014-4-30T22:21:47Z</time></trkpt>
<trkpt lat="47.31217146" lon="7.19291210"><ele></ele><time>2014-4-30T22:21:50Z</time></trkpt>
<trkpt lat="47.31315851" lon="7.19497204"><ele></ele><time>2014-4-30T22:21:53Z</time></trkpt>
<trkpt lat="47.31352329" lon="7.19647408"><ele></ele><time>2014-4-30T22:21:56Z</time></trkpt>
<trkpt lat="47.31360912" lon="7.19649553"><ele></ele><time>2014-4-30T22:21:59Z</time></trkpt>
<trkpt lat="47.31365204" lon="7.19645262"><ele></ele><time>2014-4-30T22:22:2Z</time></trkpt>
<trkpt lat="47.31354475" lon="7.19647408"><ele></ele><time>2014-4-30T22:22:5Z</time></trkpt>
<trkpt lat="47.31363058" lon="7.19640970"><ele></ele><time>2014-4-30T22:22:8Z</time></trkpt>
<trkpt lat="47.31363058" lon="7.19647408"><ele></ele><time>2014-4-30T22:22:11Z</time></trkpt>
<trkpt lat="47.31360912" lon="7.19643116"><ele></ele><time>2014-4-30T22:22:14Z</time></trkpt>
<trkpt lat="47.31354475" lon="7.19645262"><ele></ele><time>2014-4-30T22:22:17Z</time></trkpt>
<trkpt lat="47.31356621" lon="7.19643116"><ele></ele><time>2014-4-30T22:22:20Z</time></trkpt>
<trkpt lat="47.31367350" lon="7.19662428"><ele></ele><time>2014-4-30T22:22:23Z</time></trkpt>
<trkpt lat="47.31384516" lon="7.19677448"><ele></ele><time>2014-4-30T22:22:26Z</time></trkpt>
<trkpt lat="47.31384516" lon="7.19681740"><ele></ele><time>2014-4-30T22:22:29Z</time></trkpt>
<trkpt lat="47.31386662" lon="7.19681740"><ele></ele><time>2014-4-30T22:22:32Z</time></trkpt>
<trkpt lat="47.31390953" lon="7.19690323"><ele></ele><time>2014-4-30T22:22:35Z</time></trkpt>
<trkpt lat="47.31395245" lon="7.19814777"><ele></ele><time>2014-4-30T22:22:38Z</time></trkpt>
<trkpt lat="47.31390953" lon="7.19844818"><ele></ele><time>2014-4-30T22:22:41Z</time></trkpt>
<trkpt lat="47.31380224" lon="7.19872713"><ele></ele><time>2014-4-30T22:22:44Z</time></trkpt>
<trkpt lat="47.31352329" lon="7.19887733"><ele></ele><time>2014-4-30T22:22:47Z</time></trkpt>
<trkpt lat="47.31352329" lon="7.19889879"><ele></ele><time>2014-4-30T22:22:50Z</time></trkpt>
<trkpt lat="47.31330872" lon="7.19909191"><ele></ele><time>2014-4-30T22:22:53Z</time></trkpt>
<trkpt lat="47.31328726" lon="7.19913483"><ele></ele><time>2014-4-30T22:22:56Z</time></trkpt>
<trkpt lat="47.31300831" lon="7.19932795"><ele></ele><time>2014-4-30T22:22:59Z</time></trkpt>
<trkpt lat="47.31285810" lon="7.19932795"><ele></ele><time>2014-4-30T22:23:2Z</time></trkpt>
<trkpt lat="47.31272936" lon="7.19919920"><ele></ele><time>2014-4-30T22:23:5Z</time></trkpt>
<trkpt lat="47.31262207" lon="7.19904900"><ele></ele><time>2014-4-30T22:23:8Z</time></trkpt>
<trkpt lat="47.31242895" lon="7.19894171"><ele></ele><time>2014-4-30T22:23:11Z</time></trkpt>
<trkpt lat="47.31234312" lon="7.19894171"><ele></ele><time>2014-4-30T22:23:14Z</time></trkpt>
<trkpt lat="47.31234312" lon="7.19889879"><ele></ele><time>2014-4-30T22:23:17Z</time></trkpt>
<trkpt lat="47.31232166" lon="7.19892025"><ele></ele><time>2014-4-30T22:23:20Z</time></trkpt>
<trkpt lat="47.31225729" lon="7.19911337"><ele></ele><time>2014-4-30T22:23:23Z</time></trkpt>
<trkpt lat="47.31204271" lon="7.19954252"><ele></ele><time>2014-4-30T22:23:26Z</time></trkpt>
<trkpt lat="47.31167793" lon="7.20001459"><ele></ele><time>2014-4-30T22:23:29Z</time></trkpt>
<trkpt lat="47.31135607" lon="7.20035791"><ele></ele><time>2014-4-30T22:23:32Z</time></trkpt>
<trkpt lat="47.31133461" lon="7.20078707"><ele></ele><time>2014-4-30T22:23:35Z</time></trkpt>
<trkpt lat="47.31124878" lon="7.20125914"><ele></ele><time>2014-4-30T22:23:38Z</time></trkpt>
<trkpt lat="47.31107712" lon="7.20175266"><ele></ele><time>2014-4-30T22:23:41Z</time></trkpt>
<trkpt lat="47.31069088" lon="7.20248222"><ele></ele><time>2014-4-30T22:23:44Z</time></trkpt>
<trkpt lat="47.31049776" lon="7.20327616"><ele></ele><time>2014-4-30T22:23:47Z</time></trkpt>
<trkpt lat="47.31051922" lon="7.20327616"><ele></ele><time>2014-4-30T22:23:50Z</time></trkpt>
<trkpt lat="47.31056213" lon="7.20319033"><ele></ele><time>2014-4-30T22:23:53Z</time></trkpt>
<trkpt lat="47.31032610" lon="7.20276117"><ele></ele><time>2014-4-30T22:23:56Z</time></trkpt>
<trkpt lat="47.30998278" lon="7.20194578"><ele></ele><time>2014-4-30T22:23:59Z</time></trkpt>
<trkpt lat="47.30972528" lon="7.20145226"><ele></ele><time>2014-4-30T22:24:2Z</time></trkpt>
<trkpt lat="47.30970383" lon="7.20158100"><ele></ele><time>2014-4-30T22:24:5Z</time></trkpt>
<trkpt lat="47.30976820" lon="7.20239639"><ele></ele><time>2014-4-30T22:24:8Z</time></trkpt>
<trkpt lat="47.30970383" lon="7.20297575"><ele></ele><time>2014-4-30T22:24:11Z</time></trkpt>
<trkpt lat="47.30966091" lon="7.20394135"><ele></ele><time>2014-4-30T22:24:14Z</time></trkpt>
<trkpt lat="47.30948925" lon="7.20550776"><ele></ele><time>2014-4-30T22:24:17Z</time></trkpt>
<trkpt lat="47.30927467" lon="7.20690250"><ele></ele><time>2014-4-30T22:24:20Z</time></trkpt>
<trkpt lat="47.30895281" lon="7.20797539"><ele></ele><time>2014-4-30T22:24:23Z</time></trkpt>
<trkpt lat="47.30871677" lon="7.20859766"><ele></ele><time>2014-4-30T22:24:26Z</time></trkpt>
<trkpt lat="47.30854511" lon="7.20926285"><ele></ele><time>2014-4-30T22:24:29Z</time></trkpt>
<trkpt lat="47.30856657" lon="7.20928431"><ele></ele><time>2014-4-30T22:24:32Z</time></trkpt>
<trkpt lat="47.30860949" lon="7.20924139"><ele></ele><time>2014-4-30T22:24:35Z</time></trkpt>
<trkpt lat="47.30843782" lon="7.21040010"><ele></ele><time>2014-4-30T22:24:38Z</time></trkpt>
<trkpt lat="47.30835199" lon="7.21040010"><ele></ele><time>2014-4-30T22:24:41Z</time></trkpt>
<trkpt lat="47.30830908" lon="7.21018553"><ele></ele><time>2014-4-30T22:24:44Z</time></trkpt>
<trkpt lat="47.30830908" lon="7.20982075"><ele></ele><time>2014-4-30T22:24:47Z</time></trkpt>
<trkpt lat="47.30828762" lon="7.20982075"><ele></ele><time>2014-4-30T22:24:50Z</time></trkpt>
<trkpt lat="47.30824471" lon="7.21009970"><ele></ele><time>2014-4-30T22:24:53Z</time></trkpt>
<trkpt lat="47.30828762" lon="7.21018553"><ele></ele><time>2014-4-30T22:24:56Z</time></trkpt>
<trkpt lat="47.30818033" lon="7.21057177"><ele></ele><time>2014-4-30T22:24:59Z</time></trkpt>
<trkpt lat="47.30736494" lon="7.21151590"><ele></ele><time>2014-4-30T22:25:2Z</time></trkpt>
<trkpt lat="47.30719328" lon="7.21241713"><ele></ele><time>2014-4-30T22:25:5Z</time></trkpt>
<trkpt lat="47.30710745" lon="7.21436977"><ele></ele><time>2014-4-30T22:25:8Z</time></trkpt>
<trkpt lat="47.30687141" lon="7.21477747"><ele></ele><time>2014-4-30T22:25:11Z</time></trkpt>
<trkpt lat="47.30661392" lon="7.21471310"><ele></ele><time>2014-4-30T22:25:14Z</time></trkpt>
<trkpt lat="47.30616331" lon="7.21385479"><ele></ele><time>2014-4-30T22:25:17Z</time></trkpt>
<trkpt lat="47.30564833" lon="7.21306086"><ele></ele><time>2014-4-30T22:25:20Z</time></trkpt>
<trkpt lat="47.30521917" lon="7.21211672"><ele></ele><time>2014-4-30T22:25:23Z</time></trkpt>
<trkpt lat="47.30502605" lon="7.21112967"><ele></ele><time>2014-4-30T22:25:26Z</time></trkpt>
<trkpt lat="47.30485439" lon="7.21117258"><ele></ele><time>2014-4-30T22:25:29Z</time></trkpt>
<trkpt lat="47.30483294" lon="7.21138716"><ele></ele><time>2014-4-30T22:25:32Z</time></trkpt>
<trkpt lat="47.30466127" lon="7.21151590"><ele></ele><time>2014-4-30T22:25:35Z</time></trkpt>
<trkpt lat="47.30455399" lon="7.21166611"><ele></ele><time>2014-4-30T22:25:38Z</time></trkpt>
<trkpt lat="47.30448961" lon="7.21192360"><ele></ele><time>2014-4-30T22:25:41Z</time></trkpt>
<trkpt lat="47.30459690" lon="7.21265316"><ele></ele><time>2014-4-30T22:25:44Z</time></trkpt>
<trkpt lat="47.30453253" lon="7.21284628"><ele></ele><time>2014-4-30T22:25:47Z</time></trkpt>
<trkpt lat="47.30433941" lon="7.21312523"><ele></ele><time>2014-4-30T22:25:50Z</time></trkpt>
<trkpt lat="47.30438232" lon="7.21419811"><ele></ele><time>2014-4-30T22:25:53Z</time></trkpt>
<trkpt lat="47.30446815" lon="7.21469164"><ele></ele><time>2014-4-30T22:25:56Z</time></trkpt>
<trkpt lat="47.30440378" lon="7.21522808"><ele></ele><time>2014-4-30T22:25:59Z</time></trkpt>
<trkpt lat="47.30427504" lon="7.21561432"><ele></ele><time>2014-4-30T22:26:2Z</time></trkpt>
<trkpt lat="47.30410337" lon="7.21655846"><ele></ele><time>2014-4-30T22:26:5Z</time></trkpt>
<trkpt lat="47.30414629" lon="7.21769571"><ele></ele><time>2014-4-30T22:26:8Z</time></trkpt>
<trkpt lat="47.30436087" lon="7.21808195"><ele></ele><time>2014-4-30T22:26:11Z</time></trkpt>
<trkpt lat="47.30436087" lon="7.21827507"><ele></ele><time>2014-4-30T22:26:14Z</time></trkpt>
<trkpt lat="47.30431795" lon="7.21874714"><ele></ele><time>2014-4-30T22:26:17Z</time></trkpt>
<trkpt lat="47.30431795" lon="7.21917629"><ele></ele><time>2014-4-30T22:26:20Z</time></trkpt>
<trkpt lat="47.30429649" lon="7.21921921"><ele></ele><time>2014-4-30T22:26:23Z</time></trkpt>
<trkpt lat="47.30429649" lon="7.21926212"><ele></ele><time>2014-4-30T22:26:26Z</time></trkpt>
<trkpt lat="47.30431795" lon="7.21924067"><ele></ele><time>2014-4-30T22:26:29Z</time></trkpt>
<trkpt lat="47.30423212" lon="7.21964836"><ele></ele><time>2014-4-30T22:26:32Z</time></trkpt>
<trkpt lat="47.30423212" lon="7.22069979"><ele></ele><time>2014-4-30T22:26:35Z</time></trkpt>
<trkpt lat="47.30418921" lon="7.22145081"><ele></ele><time>2014-4-30T22:26:38Z</time></trkpt>
<trkpt lat="47.30416775" lon="7.22166538"><ele></ele><time>2014-4-30T22:26:41Z</time></trkpt>
<trkpt lat="47.30401754" lon="7.22215891"><ele></ele><time>2014-4-30T22:26:44Z</time></trkpt>
<trkpt lat="47.30408192" lon="7.22293139"><ele></ele><time>2014-4-30T22:26:47Z</time></trkpt>
<trkpt lat="47.30406046" lon="7.22312450"><ele></ele><time>2014-4-30T22:26:50Z</time></trkpt>
<trkpt lat="47.30416775" lon="7.22333908"><ele></ele><time>2014-4-30T22:26:53Z</time></trkpt>
<trkpt lat="47.30414629" lon="7.22336054"><ele></ele><time>2014-4-30T22:26:56Z</time></trkpt>
<trkpt lat="47.30406046" lon="7.22325325"><ele></ele><time>2014-4-30T22:26:59Z</time></trkpt>
<trkpt lat="47.30408192" lon="7.22314596"><ele></ele><time>2014-4-30T22:27:2Z</time></trkpt>
<trkpt lat="47.30440378" lon="7.22271681"><ele></ele><time>2014-4-30T22:27:5Z</time></trkpt>
<trkpt lat="47.30476856" lon="7.22213745"><ele></ele><time>2014-4-30T22:27:8Z</time></trkpt>
<trkpt lat="47.30549812" lon="7.21997023"><ele></ele><time>2014-4-30T22:27:11Z</time></trkpt>
<trkpt lat="47.30554104" lon="7.21990585"><ele></ele><time>2014-4-30T22:27:14Z</time></trkpt>
<trkpt lat="47.30575562" lon="7.21971273"><ele></ele><time>2014-4-30T22:27:17Z</time></trkpt>
<trkpt lat="47.30667830" lon="7.21939087"><ele></ele><time>2014-4-30T22:27:20Z</time></trkpt>
<trkpt lat="47.30768681" lon="7.21954107"><ele></ele><time>2014-4-30T22:27:23Z</time></trkpt>
<trkpt lat="47.30775118" lon="7.21956253"><ele></ele><time>2014-4-30T22:27:26Z</time></trkpt>
<trkpt lat="47.30820179" lon="7.21992731"><ele></ele><time>2014-4-30T22:27:29Z</time></trkpt>
<trkpt lat="47.30845928" lon="7.21999168"><ele></ele><time>2014-4-30T22:27:32Z</time></trkpt>
<trkpt lat="47.30865240" lon="7.21997023"><ele></ele><time>2014-4-30T22:27:35Z</time></trkpt>
<trkpt lat="47.30908155" lon="7.21939087"><ele></ele><time>2014-4-30T22:27:38Z</time></trkpt>
<trkpt lat="47.30925322" lon="7.21921921"><ele></ele><time>2014-4-30T22:27:41Z</time></trkpt>
<trkpt lat="47.31176376" lon="7.21763134"><ele></ele><time>2014-4-30T22:27:44Z</time></trkpt>
<trkpt lat="47.31249332" lon="7.21683741"><ele></ele><time>2014-4-30T22:27:47Z</time></trkpt>
<trkpt lat="47.31272936" lon="7.21649408"><ele></ele><time>2014-4-30T22:27:50Z</time></trkpt>
<trkpt lat="47.31292248" lon="7.21632242"><ele></ele><time>2014-4-30T22:27:53Z</time></trkpt>
<trkpt lat="47.31380224" lon="7.21563578"><ele></ele><time>2014-4-30T22:27:56Z</time></trkpt>
<trkpt lat="47.31457472" lon="7.21520662"><ele></ele><time>2014-4-30T22:27:59Z</time></trkpt>
<trkpt lat="47.31478930" lon="7.21531391"><ele></ele><time>2014-4-30T22:28:2Z</time></trkpt>
<trkpt lat="47.31562614" lon="7.21593618"><ele></ele><time>2014-4-30T22:28:5Z</time></trkpt>
<trkpt lat="47.31650591" lon="7.21638680"><ele></ele><time>2014-4-30T22:28:8Z</time></trkpt>
<trkpt lat="47.31764317" lon="7.21664429"><ele></ele><time>2014-4-30T22:28:11Z</time></trkpt>
<trkpt lat="47.31856585" lon="7.21709490"><ele></ele><time>2014-4-30T22:28:14Z</time></trkpt>
<trkpt lat="47.31869459" lon="7.21735239"><ele></ele><time>2014-4-30T22:28:17Z</time></trkpt>
<trkpt lat="47.31893063" lon="7.21760988"><ele></ele><time>2014-4-30T22:28:20Z</time></trkpt>
<trkpt lat="47.31918812" lon="7.21773863"><ele></ele><time>2014-4-30T22:28:23Z</time></trkpt>
<trkpt lat="47.31950998" lon="7.21782446"><ele></ele><time>2014-4-30T22:28:26Z</time></trkpt>
<trkpt lat="47.31985331" lon="7.21821070"><ele></ele><time>2014-4-30T22:28:29Z</time></trkpt>
<trkpt lat="47.31996059" lon="7.21851110"><ele></ele><time>2014-4-30T22:28:32Z</time></trkpt>
<trkpt lat="47.32030392" lon="7.21881151"><ele></ele><time>2014-4-30T22:28:35Z</time></trkpt>
<trkpt lat="47.32043266" lon="7.21872568"><ele></ele><time>2014-4-30T22:28:38Z</time></trkpt>
<trkpt lat="47.32058287" lon="7.21846819"><ele></ele><time>2014-4-30T22:28:41Z</time></trkpt>
<trkpt lat="47.32081890" lon="7.21780300"><ele></ele><time>2014-4-30T22:28:44Z</time></trkpt>
<trkpt lat="47.32116222" lon="7.21741676"><ele></ele><time>2014-4-30T22:28:47Z</time></trkpt>
<trkpt lat="47.32124805" lon="7.21748114"><ele></ele><time>2014-4-30T22:28:50Z</time></trkpt>
<trkpt lat="47.32148409" lon="7.21752405"><ele></ele><time>2014-4-30T22:28:53Z</time></trkpt>
<trkpt lat="47.32176304" lon="7.21726656"><ele></ele><time>2014-4-30T22:28:56Z</time></trkpt>
<trkpt lat="47.32298613" lon="7.21715927"><ele></ele><time>2014-4-30T22:28:59Z</time></trkpt>
<trkpt lat="47.32311487" lon="7.21726656"><ele></ele><time>2014-4-30T22:29:2Z</time></trkpt>
<trkpt lat="47.32324362" lon="7.21743822"><ele></ele><time>2014-4-30T22:29:5Z</time></trkpt>
<trkpt lat="47.32373714" lon="7.21928358"><ele></ele><time>2014-4-30T22:29:8Z</time></trkpt>
<trkpt lat="47.32433796" lon="7.22003460"><ele></ele><time>2014-4-30T22:29:11Z</time></trkpt>
<trkpt lat="47.32465982" lon="7.22067833"><ele></ele><time>2014-4-30T22:29:14Z</time></trkpt>
<trkpt lat="47.32493877" lon="7.22132206"><ele></ele><time>2014-4-30T22:29:17Z</time></trkpt>
<trkpt lat="47.32528210" lon="7.22239494"><ele></ele><time>2014-4-30T22:29:20Z</time></trkpt>
<trkpt lat="47.32588291" lon="7.22340345"><ele></ele><time>2014-4-30T22:29:23Z</time></trkpt>
<trkpt lat="47.32706308" lon="7.22374678"><ele></ele><time>2014-4-30T22:29:26Z</time></trkpt>
<trkpt lat="47.32717037" lon="7.22391844"><ele></ele><time>2014-4-30T22:29:29Z</time></trkpt>
<trkpt lat="47.32747078" lon="7.22415447"><ele></ele><time>2014-4-30T22:29:32Z</time></trkpt>
<trkpt lat="47.32751369" lon="7.22421885"><ele></ele><time>2014-4-30T22:29:35Z</time></trkpt>
<trkpt lat="47.32787848" lon="7.22505569"><ele></ele><time>2014-4-30T22:29:38Z</time></trkpt>
<trkpt lat="47.32845783" lon="7.22569942"><ele></ele><time>2014-4-30T22:29:41Z</time></trkpt>
<trkpt lat="47.32914448" lon="7.22627878"><ele></ele><time>2014-4-30T22:29:44Z</time></trkpt>
<trkpt lat="47.32953072" lon="7.22655773"><ele></ele><time>2014-4-30T22:29:47Z</time></trkpt>
<trkpt lat="47.32965946" lon="7.22679377"><ele></ele><time>2014-4-30T22:29:50Z</time></trkpt>
<trkpt lat="47.32974529" lon="7.22700834"><ele></ele><time>2014-4-30T22:29:53Z</time></trkpt>
<trkpt lat="47.32974529" lon="7.22741604"><ele></ele><time>2014-4-30T22:29:56Z</time></trkpt>
<trkpt lat="47.32970238" lon="7.22786665"><ele></ele><time>2014-4-30T22:29:59Z</time></trkpt>
<trkpt lat="47.32993841" lon="7.22898245"><ele></ele><time>2014-4-30T22:30:2Z</time></trkpt>
<trkpt lat="47.33051777" lon="7.23011971"><ele></ele><time>2014-4-30T22:30:5Z</time></trkpt>
<trkpt lat="47.33092546" lon="7.23099947"><ele></ele><time>2014-4-30T22:30:8Z</time></trkpt>
<trkpt lat="47.33176231" lon="7.23325253"><ele></ele><time>2014-4-30T22:30:11Z</time></trkpt>
<trkpt lat="47.33210564" lon="7.23456144"><ele></ele><time>2014-4-30T22:30:14Z</time></trkpt>
<trkpt lat="47.33221292" lon="7.23556995"><ele></ele><time>2014-4-30T22:30:17Z</time></trkpt>
<trkpt lat="47.33227730" lon="7.23589182"><ele></ele><time>2014-4-30T22:30:20Z</time></trkpt>
<trkpt lat="47.33255625" lon="7.23655701"><ele></ele><time>2014-4-30T22:30:23Z</time></trkpt>
<trkpt lat="47.33277082" lon="7.23687887"><ele></ele><time>2014-4-30T22:30:26Z</time></trkpt>
<trkpt lat="47.33362913" lon="7.23981857"><ele></ele><time>2014-4-30T22:30:29Z</time></trkpt>
<trkpt lat="47.33425140" lon="7.24174976"><ele></ele><time>2014-4-30T22:30:32Z</time></trkpt>
<trkpt lat="47.33435869" lon="7.24200726"><ele></ele><time>2014-4-30T22:30:35Z</time></trkpt>
<trkpt lat="47.33500242" lon="7.24286556"><ele></ele><time>2014-4-30T22:30:38Z</time></trkpt>
<trkpt lat="47.33536720" lon="7.24357367"><ele></ele><time>2014-4-30T22:30:41Z</time></trkpt>
<trkpt lat="47.33547449" lon="7.24372387"><ele></ele><time>2014-4-30T22:30:44Z</time></trkpt>
<trkpt lat="47.33575344" lon="7.24441051"><ele></ele><time>2014-4-30T22:30:47Z</time></trkpt>
<trkpt lat="47.33596802" lon="7.24456072"><ele></ele><time>2014-4-30T22:30:50Z</time></trkpt>
<trkpt lat="47.33609676" lon="7.24483967"><ele></ele><time>2014-4-30T22:30:53Z</time></trkpt>
<trkpt lat="47.33631134" lon="7.24606276"><ele></ele><time>2014-4-30T22:30:56Z</time></trkpt>
<trkpt lat="47.33646154" lon="7.24668503"><ele></ele><time>2014-4-30T22:30:59Z</time></trkpt>
<trkpt lat="47.33652592" lon="7.24760771"><ele></ele><time>2014-4-30T22:31:2Z</time></trkpt>
<trkpt lat="47.33654737" lon="7.24949598"><ele></ele><time>2014-4-30T22:31:5Z</time></trkpt>
<trkpt lat="47.33671904" lon="7.24964619"><ele></ele><time>2014-4-30T22:31:8Z</time></trkpt>
<trkpt lat="47.33680487" lon="7.24977493"><ele></ele><time>2014-4-30T22:31:11Z</time></trkpt>
<trkpt lat="47.33697653" lon="7.24994659"><ele></ele><time>2014-4-30T22:31:14Z</time></trkpt>
<trkpt lat="47.33772755" lon="7.24979639"><ele></ele><time>2014-4-30T22:31:17Z</time></trkpt>
<trkpt lat="47.33822107" lon="7.24964619"><ele></ele><time>2014-4-30T22:31:20Z</time></trkpt>
<trkpt lat="47.33828545" lon="7.24947453"><ele></ele><time>2014-4-30T22:31:23Z</time></trkpt>
<trkpt lat="47.33822107" lon="7.24943161"><ele></ele><time>2014-4-30T22:31:26Z</time></trkpt>
<trkpt lat="47.33819962" lon="7.24936724"><ele></ele><time>2014-4-30T22:31:29Z</time></trkpt>
</trkseg></trk></gpx>